CYQH

Watson Lake Airport

Watson Lake, , Canada
TAF CYQH 211738Z 2118/2206 VRB03KT P6SM SKC RMK NXT FCST BY 220000Z
Issued Valid From Valid To
Sep-21 @ 17:38 UTC
(6 hours ago)
Sep-21 @ 18:00 UTC
(6 hours ago)
Sep-22 @ 06:00 UTC
(in 6 hours)
to
TAF CYQH 211738Z 2118/2206 VRB03KT P6SM SKC RMK NXT FCST BY 220000Z
Issued Sep-21 @ 17:38 UTC
(6 hours ago)
Valid From Sep-21 @ 18:00 UTC
(6 hours ago)
Valid To Sep-22 @ 06:00 UTC
(in 6 hours)
-